Time;durP1;ratioP1;P1;durP2;ratioP2;P2;SDS_P1;SDS_P2;PMS_P1;PMS_P2;Temp;Humidity;BMP_temperature;BMP_pressure;BME280_temperature;BME280_humidity;BME280_pressure;Samples;Min_cycle;Max_cycle;Signal;HPM_P1;HPM_P2
2023/12/22 00:07:05;;;;;;;9.73;1.13;;;7.40;16.20;;;;;;20999305;28;20036;-41
2023/12/22 00:17:06;;;;;;;11.95;1.40;;;7.50;11.80;;;;;;21005826;28;20044;-40
2023/12/22 00:27:07;;;;;;;9.52;2.03;;;7.60;8.10;;;;;;21005241;28;20044;-40
2023/12/22 00:37:08;;;;;;;9.57;1.17;;;7.50;6.20;;;;;;21000068;28;20059;-40
2023/12/22 00:47:08;;;;;;;10.85;1.23;;;7.20;9.30;;;;;;20991443;28;20052;-41
2023/12/22 00:57:09;;;;;;;10.45;2.58;;;6.60;45.50;;;;;;21007519;28;20052;-41
2023/12/22 01:07:10;;;;;;;10.75;1.20;;;6.50;91.20;;;;;;21011671;28;20044;-41
2023/12/22 01:17:11;;;;;;;12.32;1.58;;;6.50;99.90;;;;;;21005506;28;20028;-41
2023/12/22 01:27:12;;;;;;;16.52;1.27;;;6.60;99.90;;;;;;21001894;28;20052;-41
2023/12/22 01:37:13;;;;;;;12.70;1.60;;;6.50;99.90;;;;;;21002903;28;20056;-41
2023/12/22 01:47:14;;;;;;;19.30;2.38;;;6.70;99.90;;;;;;20998023;28;20531;-41
2023/12/22 01:57:17;;;;;;;18.85;2.92;;;6.70;99.90;;;;;;21006194;28;20543;-41
2023/12/22 02:07:18;;;;;;;17.27;2.30;;;6.80;99.90;;;;;;21009708;28;20048;-41
2023/12/22 02:17:26;;;;;;;21.27;3.10;;;6.80;99.90;;;;;;21016975;28;20051;-40
2023/12/22 02:27:26;;;;;;;14.38;1.63;;;6.90;55.80;;;;;;21013355;28;20054;-41
2023/12/22 02:37:28;;;;;;;17.63;2.42;;;7.10;27.40;;;;;;21015830;28;20053;-40
2023/12/22 02:47:29;;;;;;;15.77;2.28;;;7.30;9.90;;;;;;21013013;28;20052;-41
2023/12/22 02:57:30;;;;;;;9.98;1.70;;;7.30;5.00;;;;;;21010620;28;20086;-40
2023/12/22 03:07:30;;;;;;;14.23;2.33;;;7.40;4.50;;;;;;21006788;28;20044;-40
2023/12/22 03:17:32;;;;;;;16.23;2.28;;;7.60;1.00;;;;;;21014139;28;20051;-39
2023/12/22 03:27:32;;;;;;;16.67;2.10;;;7.70;1.00;;;;;;21012872;28;20048;-40
2023/12/22 03:37:33;;;;;;;18.73;2.70;;;7.90;1.00;;;;;;21007235;28;20139;-40
2023/12/22 03:47:33;;;;;;;17.88;2.20;;;8.20;1.00;;;;;;20998016;28;20110;-40
2023/12/22 03:57:34;;;;;;;15.82;2.05;;;8.30;1.00;;;;;;21011183;28;20098;-40
2023/12/22 04:07:35;;;;;;;16.85;2.55;;;8.40;1.00;;;;;;21007388;28;20065;-40
2023/12/22 04:17:36;;;;;;;13.48;1.83;;;8.40;1.00;;;;;;21008044;28;20509;-40
2023/12/22 04:27:36;;;;;;;18.30;2.28;;;8.40;1.00;;;;;;21007547;28;20629;-40
2023/12/22 04:37:37;;;;;;;17.80;2.30;;;8.40;1.00;;;;;;21009447;28;20052;-40
2023/12/22 04:47:38;;;;;;;10.65;2.17;;;8.50;1.00;;;;;;21002246;28;20163;-40
2023/12/22 04:57:38;;;;;;;13.73;1.75;;;8.60;1.00;;;;;;21009363;28;20048;-40
2023/12/22 05:07:40;;;;;;;11.80;1.88;;;8.60;1.00;;;;;;21004416;28;20037;-39
2023/12/22 05:17:40;;;;;;;10.45;1.85;;;8.80;1.00;;;;;;20997411;28;20060;-39
2023/12/22 05:27:42;;;;;;;14.38;2.35;;;8.80;1.00;;;;;;20999249;28;20052;-40
2023/12/22 05:37:43;;;;;;;13.73;1.80;;;8.90;1.00;;;;;;21018297;28;20582;-39
2023/12/22 05:47:44;;;;;;;16.98;1.98;;;9.00;1.00;;;;;;21024344;28;20157;-39
2023/12/22 05:57:44;;;;;;;13.05;2.33;;;9.00;1.00;;;;;;21019254;28;20036;-39
2023/12/22 06:07:45;;;;;;;15.30;2.35;;;9.10;1.00;;;;;;21014553;28;20074;-39
2023/12/22 06:17:46;;;;;;;18.38;3.13;;;9.10;1.00;;;;;;21016391;28;20086;-39
2023/12/22 06:27:46;;;;;;;15.13;2.50;;;9.10;1.00;;;;;;21020230;28;20829;-39
2023/12/22 06:37:47;;;;;;;22.25;2.97;;;9.20;1.00;;;;;;21014733;28;20849;-39
2023/12/22 06:47:47;;;;;;;19.05;3.38;;;9.30;1.00;;;;;;21021883;28;20044;-39
2023/12/22 06:57:48;;;;;;;28.98;4.53;;;9.30;1.00;;;;;;21017699;28;20045;-39
2023/12/22 07:07:48;;;;;;;20.80;3.03;;;9.40;1.00;;;;;;21013954;28;20135;-40
2023/12/22 07:17:49;;;;;;;20.13;3.08;;;9.40;1.00;;;;;;21017363;28;20457;-40
2023/12/22 07:27:50;;;;;;;24.15;3.20;;;9.40;1.00;;;;;;21016685;28;20048;-39
2023/12/22 07:37:50;;;;;;;23.27;3.10;;;9.40;1.00;;;;;;21010675;28;20053;-39
2023/12/22 07:47:51;;;;;;;20.70;3.53;;;9.40;1.00;;;;;;21019255;28;20048;-39
2023/12/22 07:57:52;;;;;;;25.67;3.75;;;9.50;9.20;;;;;;21009846;28;20055;-40
2023/12/22 08:07:52;;;;;;;12.90;2.35;;;9.40;21.80;;;;;;21008426;28;20041;-39
2023/12/22 08:17:53;;;;;;;16.93;2.37;;;9.20;36.20;;;;;;21010158;28;20040;-40
2023/12/22 08:27:53;;;;;;;18.25;2.92;;;8.70;93.50;;;;;;21011333;28;20037;-39
2023/12/22 08:37:54;;;;;;;25.15;2.63;;;8.70;99.90;;;;;;21011264;28;20446;-39
2023/12/22 08:47:55;;;;;;;19.55;2.50;;;8.80;99.90;;;;;;21010262;28;20046;-41
2023/12/22 08:57:56;;;;;;;11.15;2.17;;;8.90;99.90;;;;;;21001174;28;20552;-40
2023/12/22 09:07:57;;;;;;;12.20;2.27;;;9.00;99.90;;;;;;21015231;28;20928;-40
2023/12/22 09:17:57;;;;;;;15.13;3.35;;;9.10;99.90;;;;;;21024633;28;20519;-40
2023/12/22 09:27:58;;;;;;;11.85;2.78;;;9.20;99.90;;;;;;21026659;28;20059;-40
2023/12/22 09:37:58;;;;;;;12.85;1.75;;;9.30;99.90;;;;;;21014365;28;20411;-40
2023/12/22 09:48:00;;;;;;;8.75;1.30;;;9.50;99.90;;;;;;21027443;28;20115;-40
2023/12/22 09:58:02;;;;;;;10.18;1.42;;;9.50;99.90;;;;;;21019375;28;20759;-41
2023/12/22 10:08:05;;;;;;;12.93;1.60;;;9.70;99.90;;;;;;21020693;28;20096;-40
2023/12/22 10:18:06;;;;;;;9.48;1.83;;;9.80;99.90;;;;;;21017962;28;20040;-40
2023/12/22 10:28:10;;;;;;;8.82;1.58;;;9.80;99.90;;;;;;21017511;28;20047;-40
2023/12/22 10:38:11;;;;;;;7.90;1.67;;;9.90;99.90;;;;;;21018950;28;20055;-41
2023/12/22 10:48:11;;;;;;;6.18;1.40;;;10.00;99.90;;;;;;21020212;28;20422;-39
2023/12/22 10:58:12;;;;;;;10.90;1.48;;;10.10;99.90;;;;;;21013347;28;20503;-40
2023/12/22 11:08:17;;;;;;;11.45;1.48;;;10.10;95.10;;;;;;21016817;28;20068;-39
2023/12/22 11:18:19;;;;;;;9.75;1.98;;;10.20;79.40;;;;;;21014094;28;20055;-40
2023/12/22 11:28:21;;;;;;;10.15;1.30;;;10.40;58.20;;;;;;21014583;28;20036;-40
2023/12/22 11:38:22;;;;;;;12.43;1.50;;;10.30;45.40;;;;;;21010145;28;20064;-40
2023/12/22 11:48:22;;;;;;;11.57;1.45;;;10.40;47.80;;;;;;21010472;28;20817;-40
2023/12/22 11:58:58;;;;;;;9.75;1.30;;;10.50;47.30;;;;;;21010891;28;20036;-40
2023/12/22 12:09:01;;;;;;;7.47;1.10;;;10.60;53.80;;;;;;21007867;28;20087;-40
2023/12/22 12:19:02;;;;;;;7.75;2.15;;;10.70;32.80;;;;;;21008457;28;20123;-40
2023/12/22 12:29:03;;;;;;;11.43;1.45;;;10.70;37.10;;;;;;21005270;28;20047;-39
2023/12/22 12:39:08;;;;;;;9.60;1.50;;;10.80;30.10;;;;;;21009116;28;20044;-39
2023/12/22 12:49:11;;;;;;;5.93;1.13;;;10.80;23.00;;;;;;21006440;28;20036;-40
2023/12/22 12:59:13;;;;;;;9.63;1.35;;;10.80;21.50;;;;;;21001578;28;20561;-40
2023/12/22 13:09:15;;;;;;;7.93;1.38;;;10.90;17.60;;;;;;21003834;28;20040;-39
2023/12/22 13:19:16;;;;;;;12.07;1.45;;;10.90;11.70;;;;;;21004326;28;20197;-39
2023/12/22 13:29:17;;;;;;;11.53;1.83;;;10.90;12.60;;;;;;21006353;28;20040;-39
2023/12/22 13:39:17;;;;;;;13.85;2.90;;;10.90;13.70;;;;;;21005136;28;20481;-40
2023/12/22 13:49:18;;;;;;;15.18;2.53;;;11.00;13.40;;;;;;21005102;28;20052;-39
2023/12/22 13:59:31;;;;;;;8.13;1.58;;;11.10;12.40;;;;;;21016766;28;20075;-39
2023/12/22 14:09:33;;;;;;;15.90;2.17;;;11.00;15.10;;;;;;21014762;28;20067;-39
2023/12/22 14:19:34;;;;;;;11.20;1.70;;;11.10;11.10;;;;;;21017442;28;20050;-40
2023/12/22 14:29:36;;;;;;;9.80;1.90;;;11.10;8.70;;;;;;21014260;28;20040;-39
2023/12/22 14:39:37;;;;;;;10.80;2.15;;;11.20;6.80;;;;;;21010125;28;20047;-40
2023/12/22 14:49:37;;;;;;;15.93;2.38;;;11.10;7.40;;;;;;21003281;28;20040;-40
2023/12/22 14:59:38;;;;;;;11.60;2.00;;;11.10;10.90;;;;;;21009283;28;20059;-40
2023/12/22 15:09:39;;;;;;;13.43;2.95;;;11.10;7.50;;;;;;21025743;28;20064;-39
2023/12/22 15:19:44;;;;;;;14.68;1.90;;;11.10;5.80;;;;;;21014305;28;20115;-39
2023/12/22 15:29:46;;;;;;;15.75;2.40;;;11.10;3.10;;;;;;21005169;28;20059;-39
2023/12/22 15:39:47;;;;;;;15.40;2.85;;;11.10;1.40;;;;;;21007629;28;20052;-39
2023/12/22 15:49:47;;;;;;;15.52;2.53;;;11.10;1.00;;;;;;21009606;28;20046;-39
2023/12/22 15:59:49;;;;;;;14.90;2.80;;;11.20;1.60;;;;;;21004080;28;20067;-39
2023/12/22 16:09:49;;;;;;;12.57;2.22;;;11.20;1.20;;;;;;21007210;28;20052;-40
2023/12/22 16:19:53;;;;;;;18.23;2.17;;;11.10;1.60;;;;;;21005498;28;20036;-39
2023/12/22 16:29:53;;;;;;;12.13;2.55;;;11.10;2.20;;;;;;21007664;28;20033;-40
2023/12/22 16:39:54;;;;;;;12.73;2.25;;;11.10;11.30;;;;;;21011161;28;20048;-39
2023/12/22 16:49:55;;;;;;;11.85;2.67;;;10.90;18.10;;;;;;21005290;28;20040;-42
2023/12/22 16:59:55;;;;;;;14.98;2.20;;;10.80;21.90;;;;;;21005876;28;20047;-41
2023/12/22 17:09:56;;;;;;;14.35;2.53;;;10.80;16.60;;;;;;21003759;28;20040;-41
2023/12/22 17:19:57;;;;;;;17.00;2.15;;;10.80;9.50;;;;;;21008820;28;20199;-39
2023/12/22 17:29:58;;;;;;;16.98;2.58;;;10.80;8.70;;;;;;21015645;28;20043;-39
2023/12/22 17:39:58;;;;;;;12.43;2.53;;;10.90;5.60;;;;;;21015962;28;20518;-38
2023/12/22 17:49:59;;;;;;;11.93;1.75;;;10.90;1.70;;;;;;21009059;28;20040;-38
2023/12/22 17:59:59;;;;;;;11.98;1.95;;;11.00;1.00;;;;;;21013321;28;20865;-39
2023/12/22 18:10:00;;;;;;;13.65;1.98;;;11.00;1.00;;;;;;21009174;28;20044;-38
2023/12/22 18:20:00;;;;;;;15.95;2.65;;;11.10;1.00;;;;;;21009847;28;20209;-39
2023/12/22 18:30:04;;;;;;;10.63;1.75;;;11.10;1.00;;;;;;21009359;28;20047;-39
2023/12/22 18:40:05;;;;;;;11.50;1.92;;;11.10;1.00;;;;;;21007896;28;20044;-39
2023/12/22 18:50:06;;;;;;;10.68;1.80;;;11.10;1.00;;;;;;21006168;28;20094;-39
2023/12/22 19:00:08;;;;;;;11.98;1.90;;;11.10;1.00;;;;;;21005606;28;20101;-39
2023/12/22 19:10:10;;;;;;;10.43;1.90;;;11.10;1.00;;;;;;21008963;28;20036;-39
2023/12/22 19:20:11;;;;;;;9.52;1.58;;;11.20;1.00;;;;;;21015487;28;20489;-39
2023/12/22 19:30:11;;;;;;;4.50;0.80;;;11.10;1.00;;;;;;21013847;28;20407;-40
2023/12/22 19:40:13;;;;;;;10.18;1.52;;;9.60;1.00;;;;;;20996917;28;20053;-40
2023/12/22 19:50:14;;;;;;;6.72;1.02;;;8.90;35.10;;;;;;21008996;28;20067;-40
2023/12/22 20:00:14;;;;;;;10.70;1.30;;;8.50;91.40;;;;;;21003600;28;20488;-40
2023/12/22 20:10:15;;;;;;;11.63;2.58;;;8.40;99.90;;;;;;21003617;28;20064;-40
2023/12/22 20:20:17;;;;;;;13.20;1.83;;;8.30;99.90;;;;;;21010543;28;20201;-40
2023/12/22 20:30:18;;;;;;;7.93;2.10;;;8.40;99.90;;;;;;21008336;28;20050;-40
2023/12/22 20:40:18;;;;;;;11.05;2.20;;;8.30;99.90;;;;;;21004455;28;20759;-40
2023/12/22 20:50:19;;;;;;;10.48;2.20;;;8.40;99.90;;;;;;21002975;28;20048;-40
2023/12/22 21:00:19;;;;;;;7.83;1.73;;;8.40;99.90;;;;;;21005798;28;20041;-39
2023/12/22 21:10:21;;;;;;;13.23;1.52;;;8.50;99.90;;;;;;21000225;28;21200;-39
2023/12/22 21:20:22;;;;;;;13.77;1.83;;;8.40;99.90;;;;;;21007542;28;20044;-41
2023/12/22 21:30:22;;;;;;;14.02;2.13;;;8.50;99.90;;;;;;21011766;28;20047;-40
2023/12/22 21:40:23;;;;;;;12.65;1.80;;;8.50;96.90;;;;;;21013918;28;20048;-41
2023/12/22 21:50:23;;;;;;;7.95;1.30;;;8.50;75.40;;;;;;21005339;28;20523;-41
2023/12/22 22:00:24;;;;;;;7.07;0.88;;;8.60;49.70;;;;;;21008357;28;20471;-41
2023/12/22 22:10:24;;;;;;;13.52;2.83;;;8.50;45.90;;;;;;21005097;28;20095;-41
2023/12/22 22:20:25;;;;;;;13.07;2.58;;;8.40;27.20;;;;;;21021129;28;20062;-41
2023/12/22 22:30:25;;;;;;;7.10;1.80;;;8.30;28.60;;;;;;21020936;28;20040;-41
2023/12/22 22:40:26;;;;;;;8.65;1.70;;;8.20;38.30;;;;;;21018780;28;20154;-41
2023/12/22 22:50:27;;;;;;;12.05;2.72;;;8.00;49.10;;;;;;21018206;28;20130;-41
2023/12/22 23:00:29;;;;;;;13.43;2.75;;;8.10;52.50;;;;;;21015431;28;20036;-40
2023/12/22 23:10:29;;;;;;;12.60;2.10;;;8.00;87.30;;;;;;20998008;28;20123;-41
2023/12/22 23:20:30;;;;;;;13.40;1.70;;;8.00;99.90;;;;;;21011200;28;20703;-41
2023/12/22 23:30:31;;;;;;;12.30;1.73;;;8.20;99.90;;;;;;21017038;28;20150;-41
2023/12/22 23:40:31;;;;;;;12.40;2.13;;;8.20;99.90;;;;;;21012073;28;20194;-40
2023/12/22 23:50:32;;;;;;;19.98;5.53;;;8.30;99.90;;;;;;21012154;28;20048;-41
